sensor_id;sensor_type;location;lat;lon;timestamp;pressure;altitude;pressure_sealevel;temperature;humidity
12913;BME280;6524;51.368;11.984;2022-07-17T04:04:05;101371.81;;;12.63;73.49
12913;BME280;6524;51.368;11.984;2022-07-17T04:09:05;101384.91;;;12.63;74.75
12913;BME280;6524;51.368;11.984;2022-07-17T04:14:06;101378.00;;;12.59;75.92
12913;BME280;6524;51.368;11.984;2022-07-17T04:19:06;101384.19;;;12.91;77.88
12913;BME280;6524;51.368;11.984;2022-07-17T04:24:06;101393.13;;;13.16;77.23
12913;BME280;6524;51.368;11.984;2022-07-17T04:29:07;101390.16;;;13.61;76.40
12913;BME280;6524;51.368;11.984;2022-07-17T04:34:07;101394.63;;;13.87;74.31
12913;BME280;6524;51.368;11.984;2022-07-17T04:39:07;101391.06;;;13.90;74.61
12913;BME280;6524;51.368;11.984;2022-07-17T04:44:08;101399.75;;;13.92;74.69
12913;BME280;6524;51.368;11.984;2022-07-17T04:49:08;101401.09;;;14.04;72.78
12913;BME280;6524;51.368;11.984;2022-07-17T04:54:09;101403.06;;;14.25;71.52
12913;BME280;6524;51.368;11.984;2022-07-17T04:59:09;101414.03;;;14.38;70.21
12913;BME280;6524;51.368;11.984;2022-07-17T05:04:09;101418.19;;;14.45;69.40
12913;BME280;6524;51.368;11.984;2022-07-17T05:09:10;101430.88;;;14.61;69.33
12913;BME280;6524;51.368;11.984;2022-07-17T05:14:10;101433.47;;;14.87;68.60
12913;BME280;6524;51.368;11.984;2022-07-17T05:19:10;101445.78;;;15.12;68.36
12913;BME280;6524;51.368;11.984;2022-07-17T05:24:11;101446.97;;;15.28;66.42
12913;BME280;6524;51.368;11.984;2022-07-17T05:29:11;101433.06;;;15.49;66.01
12913;BME280;6524;51.368;11.984;2022-07-17T05:34:11;101439.06;;;15.78;65.79
12913;BME280;6524;51.368;11.984;2022-07-17T05:39:12;101430.00;;;16.09;64.89
12913;BME280;6524;51.368;11.984;2022-07-17T05:44:12;101436.22;;;16.52;63.79
12913;BME280;6524;51.368;11.984;2022-07-17T05:49:12;101426.16;;;17.04;61.91
12913;BME280;6524;51.368;11.984;2022-07-17T05:54:13;101417.47;;;17.43;60.26
12913;BME280;6524;51.368;11.984;2022-07-17T05:59:13;101425.19;;;17.66;59.64
12913;BME280;6524;51.368;11.984;2022-07-17T06:04:13;101427.16;;;17.82;59.34
12913;BME280;6524;51.368;11.984;2022-07-17T06:09:14;101443.72;;;18.04;58.85
12913;BME280;6524;51.368;11.984;2022-07-17T06:14:14;101458.69;;;18.22;58.58
12913;BME280;6524;51.368;11.984;2022-07-17T06:19:14;101472.25;;;18.34;58.67
12913;BME280;6524;51.368;11.984;2022-07-17T06:24:15;101455.03;;;18.61;58.03
12913;BME280;6524;51.368;11.984;2022-07-17T06:29:15;101457.47;;;18.85;57.08
12913;BME280;6524;51.368;11.984;2022-07-17T06:34:15;101463.81;;;19.33;55.64
12913;BME280;6524;51.368;11.984;2022-07-17T06:39:15;101462.13;;;19.32;54.73
12913;BME280;6524;51.368;11.984;2022-07-17T06:44:16;101463.81;;;19.33;55.24
12913;BME280;6524;51.368;11.984;2022-07-17T06:49:17;101471.38;;;19.91;52.86
12913;BME280;6524;51.368;11.984;2022-07-17T06:54:17;101477.53;;;20.71;50.44
12913;BME280;6524;51.368;11.984;2022-07-17T06:59:18;101472.00;;;20.60;49.77
12913;BME280;6524;51.368;11.984;2022-07-17T07:04:18;101476.78;;;20.99;48.84
12913;BME280;6524;51.368;11.984;2022-07-17T07:09:19;101463.69;;;21.56;48.71
12913;BME280;6524;51.368;11.984;2022-07-17T07:14:19;101459.97;;;21.87;47.86
12913;BME280;6524;51.368;11.984;2022-07-17T07:19:19;101458.81;;;21.77;46.94
12913;BME280;6524;51.368;11.984;2022-07-17T07:24:20;101454.84;;;21.84;47.04
12913;BME280;6524;51.368;11.984;2022-07-17T07:29:20;101450.19;;;22.98;45.38
12913;BME280;6524;51.368;11.984;2022-07-17T07:34:23;101454.13;;;23.18;43.23
12913;BME280;6524;51.368;11.984;2022-07-17T07:39:23;101446.50;;;23.39;43.63
12913;BME280;6524;51.368;11.984;2022-07-17T07:44:24;101444.72;;;24.38;41.25
12913;BME280;6524;51.368;11.984;2022-07-17T07:49:24;101452.00;;;25.31;40.79
12913;BME280;6524;51.368;11.984;2022-07-17T07:54:25;101447.66;;;25.75;38.43
12913;BME280;6524;51.368;11.984;2022-07-17T07:59:26;101451.28;;;25.40;40.08
12913;BME280;6524;51.368;11.984;2022-07-17T08:04:27;101444.25;;;25.39;39.33
12913;BME280;6524;51.368;11.984;2022-07-17T08:09:27;101449.53;;;25.86;39.03
12913;BME280;6524;51.368;11.984;2022-07-17T08:14:28;101452.06;;;25.98;38.55
12913;BME280;6524;51.368;11.984;2022-07-17T08:19:28;101444.53;;;25.81;37.94
12913;BME280;6524;51.368;11.984;2022-07-17T08:24:28;101446.25;;;26.37;37.90
12913;BME280;6524;51.368;11.984;2022-07-17T08:29:29;101446.13;;;26.49;36.88
12913;BME280;6524;51.368;11.984;2022-07-17T08:34:29;101462.91;;;26.51;37.26
12913;BME280;6524;51.368;11.984;2022-07-17T08:39:29;101467.84;;;27.09;36.63
12913;BME280;6524;51.368;11.984;2022-07-17T08:44:30;101461.88;;;27.68;34.84
12913;BME280;6524;51.368;11.984;2022-07-17T08:49:31;101454.88;;;26.51;35.83
12913;BME280;6524;51.368;11.984;2022-07-17T08:54:32;101454.47;;;26.45;35.73
12913;BME280;6524;51.368;11.984;2022-07-17T08:59:33;101446.75;;;26.30;36.83
12913;BME280;6524;51.368;11.984;2022-07-17T09:04:37;101447.41;;;25.55;36.53
12913;BME280;6524;51.368;11.984;2022-07-17T09:09:37;101456.66;;;25.85;37.07
12913;BME280;6524;51.368;11.984;2022-07-17T09:14:40;101458.09;;;26.12;35.98
12913;BME280;6524;51.368;11.984;2022-07-17T09:19:43;101453.03;;;25.64;35.94
12913;BME280;6524;51.368;11.984;2022-07-17T09:34:56;101431.22;;;26.13;35.76
12913;BME280;6524;51.368;11.984;2022-07-17T09:40:00;101434.38;;;26.29;34.78
12913;BME280;6524;51.368;11.984;2022-07-17T09:50:04;101431.31;;;26.34;33.57
12913;BME280;6524;51.368;11.984;2022-07-17T09:55:08;101427.25;;;26.83;33.52
12913;BME280;6524;51.368;11.984;2022-07-17T10:00:09;101427.88;;;27.38;35.37
12913;BME280;6524;51.368;11.984;2022-07-17T10:05:14;101425.97;;;28.50;33.62
12913;BME280;6524;51.368;11.984;2022-07-17T10:10:16;101438.38;;;29.19;32.23
12913;BME280;6524;51.368;11.984;2022-07-17T10:15:18;101434.59;;;28.54;32.02
12913;BME280;6524;51.368;11.984;2022-07-17T10:20:32;101443.41;;;27.75;35.57
12913;BME280;6524;51.368;11.984;2022-07-17T10:25:32;101442.63;;;28.73;32.07
12913;BME280;6524;51.368;11.984;2022-07-17T10:30:33;101434.75;;;28.72;31.70
12913;BME280;6524;51.368;11.984;2022-07-17T10:35:46;101427.63;;;29.00;31.61
12913;BME280;6524;51.368;11.984;2022-07-17T10:41:02;101429.31;;;29.20;28.89
12913;BME280;6524;51.368;11.984;2022-07-17T10:46:12;101427.69;;;28.80;29.38
12913;BME280;6524;51.368;11.984;2022-07-17T10:51:12;101427.03;;;29.25;28.98
12913;BME280;6524;51.368;11.984;2022-07-17T10:56:12;101428.38;;;30.32;29.24
12913;BME280;6524;51.368;11.984;2022-07-17T11:06:38;101423.75;;;29.79;28.56
12913;BME280;6524;51.368;11.984;2022-07-17T11:11:39;101421.03;;;30.06;28.90
12913;BME280;6524;51.368;11.984;2022-07-17T11:16:54;101408.41;;;30.34;28.85
12913;BME280;6524;51.368;11.984;2022-07-17T11:21:55;101406.88;;;30.04;28.30
12913;BME280;6524;51.368;11.984;2022-07-17T11:26:57;101415.19;;;29.18;28.49
12913;BME280;6524;51.368;11.984;2022-07-17T11:31:58;101404.88;;;29.51;28.48
12913;BME280;6524;51.368;11.984;2022-07-17T11:37:03;101408.56;;;30.05;29.15
12913;BME280;6524;51.368;11.984;2022-07-17T11:42:07;101404.19;;;30.04;29.57
12913;BME280;6524;51.368;11.984;2022-07-17T11:47:09;101394.94;;;29.71;29.61
12913;BME280;6524;51.368;11.984;2022-07-17T11:52:14;101393.81;;;30.09;28.21
12913;BME280;6524;51.368;11.984;2022-07-17T11:57:16;101381.63;;;30.15;27.72
12913;BME280;6524;51.368;11.984;2022-07-17T12:02:19;101390.38;;;29.71;27.63
12913;BME280;6524;51.368;11.984;2022-07-17T12:07:22;101378.44;;;30.55;27.82
12913;BME280;6524;51.368;11.984;2022-07-17T12:12:24;101373.63;;;30.41;26.43
12913;BME280;6524;51.368;11.984;2022-07-17T12:17:38;101377.38;;;30.12;27.50
12913;BME280;6524;51.368;11.984;2022-07-17T12:22:47;101374.00;;;30.10;27.13
12913;BME280;6524;51.368;11.984;2022-07-17T12:27:47;101367.09;;;29.80;26.85
12913;BME280;6524;51.368;11.984;2022-07-17T12:32:47;101373.50;;;30.25;26.73
12913;BME280;6524;51.368;11.984;2022-07-17T12:37:48;101359.13;;;30.34;25.76
12913;BME280;6524;51.368;11.984;2022-07-17T12:42:48;101367.81;;;30.72;26.63
12913;BME280;6524;51.368;11.984;2022-07-17T12:47:48;101356.88;;;30.91;26.38
12913;BME280;6524;51.368;11.984;2022-07-17T12:52:49;101350.59;;;31.43;26.87
12913;BME280;6524;51.368;11.984;2022-07-17T12:57:49;101348.06;;;31.41;26.97
12913;BME280;6524;51.368;11.984;2022-07-17T13:02:50;101343.56;;;31.58;25.69
12913;BME280;6524;51.368;11.984;2022-07-17T13:07:50;101333.94;;;31.55;26.37
12913;BME280;6524;51.368;11.984;2022-07-17T13:12:51;101343.44;;;30.99;25.46
12913;BME280;6524;51.368;11.984;2022-07-17T13:17:51;101341.84;;;30.62;28.07
12913;BME280;6524;51.368;11.984;2022-07-17T13:22:51;101332.03;;;31.05;27.44
12913;BME280;6524;51.368;11.984;2022-07-17T13:27:52;101319.66;;;30.69;26.12
12913;BME280;6524;51.368;11.984;2022-07-17T13:32:52;101324.69;;;31.24;26.58
12913;BME280;6524;51.368;11.984;2022-07-17T13:37:53;101318.63;;;30.87;26.01
12913;BME280;6524;51.368;11.984;2022-07-17T13:42:54;101307.81;;;30.61;26.53
12913;BME280;6524;51.368;11.984;2022-07-17T13:47:55;101308.59;;;30.98;27.17
12913;BME280;6524;51.368;11.984;2022-07-17T13:52:55;101308.31;;;30.83;26.23
12913;BME280;6524;51.368;11.984;2022-07-17T13:57:56;101306.13;;;30.78;26.22
12913;BME280;6524;51.368;11.984;2022-07-17T14:02:57;101301.06;;;31.09;26.17
12913;BME280;6524;51.368;11.984;2022-07-17T14:07:57;101291.31;;;31.17;28.58
12913;BME280;6524;51.368;11.984;2022-07-17T14:12:57;101289.22;;;31.02;28.73
12913;BME280;6524;51.368;11.984;2022-07-17T14:17:58;101288.41;;;31.02;25.73
12913;BME280;6524;51.368;11.984;2022-07-17T14:22:58;101291.38;;;30.91;26.66
12913;BME280;6524;51.368;11.984;2022-07-17T14:27:58;101279.22;;;30.60;25.69
12913;BME280;6524;51.368;11.984;2022-07-17T14:32:59;101284.09;;;30.57;27.20
12913;BME280;6524;51.368;11.984;2022-07-17T14:37:59;101285.66;;;30.67;26.17
12913;BME280;6524;51.368;11.984;2022-07-17T14:42:59;101273.75;;;30.08;25.83
12913;BME280;6524;51.368;11.984;2022-07-17T14:48:00;101274.25;;;30.22;26.08
12913;BME280;6524;51.368;11.984;2022-07-17T14:53:00;101267.59;;;30.16;26.71
12913;BME280;6524;51.368;11.984;2022-07-17T14:58:00;101261.00;;;30.10;27.34
12913;BME280;6524;51.368;11.984;2022-07-17T15:03:01;101271.75;;;30.10;26.73
12913;BME280;6524;51.368;11.984;2022-07-17T15:08:01;101257.13;;;29.87;26.59
12913;BME280;6524;51.368;11.984;2022-07-17T15:13:02;101256.41;;;29.67;27.51
12913;BME280;6524;51.368;11.984;2022-07-17T15:18:02;101253.19;;;29.63;26.66
12913;BME280;6524;51.368;11.984;2022-07-17T15:23:02;101250.81;;;29.33;26.93
12913;BME280;6524;51.368;11.984;2022-07-17T15:28:03;101256.78;;;29.26;26.28
12913;BME280;6524;51.368;11.984;2022-07-17T15:33:04;101251.94;;;28.65;27.02
12913;BME280;6524;51.368;11.984;2022-07-17T15:38:04;101255.72;;;28.72;29.40
12913;BME280;6524;51.368;11.984;2022-07-17T15:43:04;101251.66;;;28.68;28.54
12913;BME280;6524;51.368;11.984;2022-07-17T15:48:05;101248.00;;;28.59;29.08
12913;BME280;6524;51.368;11.984;2022-07-17T15:53:05;101237.59;;;28.37;27.95
12913;BME280;6524;51.368;11.984;2022-07-17T15:58:06;101237.03;;;28.33;28.29
12913;BME280;6524;51.368;11.984;2022-07-17T16:03:06;101243.25;;;28.24;27.81
12913;BME280;6524;51.368;11.984;2022-07-17T16:08:06;101242.13;;;28.27;26.74
12913;BME280;6524;51.368;11.984;2022-07-17T16:13:06;101236.19;;;28.23;25.85
12913;BME280;6524;51.368;11.984;2022-07-17T16:18:07;101230.84;;;28.13;26.63
12913;BME280;6524;51.368;11.984;2022-07-17T16:23:07;101222.38;;;28.18;26.53
12913;BME280;6524;51.368;11.984;2022-07-17T16:28:08;101217.00;;;28.28;26.29
12913;BME280;6524;51.368;11.984;2022-07-17T16:33:23;101206.56;;;28.25;26.17
12913;BME280;6524;51.368;11.984;2022-07-17T16:38:23;101212.19;;;28.22;26.20
12913;BME280;6524;51.368;11.984;2022-07-17T16:43:24;101206.28;;;28.18;28.54
12913;BME280;6524;51.368;11.984;2022-07-17T16:48:24;101201.53;;;27.93;26.32
12913;BME280;6524;51.368;11.984;2022-07-17T16:53:25;101208.69;;;27.92;25.79
12913;BME280;6524;51.368;11.984;2022-07-17T16:58:25;101204.06;;;27.84;26.24
12913;BME280;6524;51.368;11.984;2022-07-17T17:03:25;101192.75;;;27.71;27.47
12913;BME280;6524;51.368;11.984;2022-07-17T17:08:26;101200.38;;;27.66;26.10
12913;BME280;6524;51.368;11.984;2022-07-17T17:13:26;101194.16;;;27.65;27.17
12913;BME280;6524;51.368;11.984;2022-07-17T17:18:26;101189.66;;;27.47;27.14
12913;BME280;6524;51.368;11.984;2022-07-17T17:23:27;101190.22;;;27.60;27.21
12913;BME280;6524;51.368;11.984;2022-07-17T17:28:27;101189.38;;;27.50;28.34
12913;BME280;6524;51.368;11.984;2022-07-17T17:33:27;101177.09;;;27.37;29.77
12913;BME280;6524;51.368;11.984;2022-07-17T17:38:28;101172.44;;;27.30;31.47
12913;BME280;6524;51.368;11.984;2022-07-17T17:43:30;101169.56;;;27.12;30.76
12913;BME280;6524;51.368;11.984;2022-07-17T17:48:30;101169.94;;;26.97;29.82
12913;BME280;6524;51.368;11.984;2022-07-17T17:53:33;101171.41;;;26.71;32.07
12913;BME280;6524;51.368;11.984;2022-07-17T17:58:33;101179.47;;;26.50;32.07
12913;BME280;6524;51.368;11.984;2022-07-17T18:03:34;101171.59;;;26.48;31.54
12913;BME280;6524;51.368;11.984;2022-07-17T18:08:34;101185.81;;;26.28;31.80
12913;BME280;6524;51.368;11.984;2022-07-17T18:13:34;101193.50;;;26.00;31.96
12913;BME280;6524;51.368;11.984;2022-07-17T18:18:35;101194.03;;;25.94;32.14
12913;BME280;6524;51.368;11.984;2022-07-17T18:23:36;101189.50;;;25.74;32.99
12913;BME280;6524;51.368;11.984;2022-07-17T18:28:37;101195.78;;;25.73;31.82
12913;BME280;6524;51.368;11.984;2022-07-17T18:33:37;101197.94;;;25.79;32.09
12913;BME280;6524;51.368;11.984;2022-07-17T18:38:38;101192.66;;;25.68;33.02
12913;BME280;6524;51.368;11.984;2022-07-17T18:43:38;101186.41;;;25.57;33.10
12913;BME280;6524;51.368;11.984;2022-07-17T18:48:38;101197.13;;;25.35;33.39
12913;BME280;6524;51.368;11.984;2022-07-17T18:53:39;101201.28;;;25.28;33.58
12913;BME280;6524;51.368;11.984;2022-07-17T18:58:39;101203.38;;;25.02;34.22
12913;BME280;6524;51.368;11.984;2022-07-17T19:03:40;101216.09;;;24.76;34.00
12913;BME280;6524;51.368;11.984;2022-07-17T19:08:41;101218.19;;;24.61;34.35
12913;BME280;6524;51.368;11.984;2022-07-17T19:13:41;101221.13;;;24.34;35.16
12913;BME280;6524;51.368;11.984;2022-07-17T19:18:41;101228.00;;;24.25;35.58
12913;BME280;6524;51.368;11.984;2022-07-17T19:23:42;101226.88;;;24.05;36.03
12913;BME280;6524;51.368;11.984;2022-07-17T19:28:45;101234.28;;;23.77;36.77
12913;BME280;6524;51.368;11.984;2022-07-17T19:33:48;101236.34;;;23.61;36.44
12913;BME280;6524;51.368;11.984;2022-07-17T19:38:49;101237.25;;;23.49;37.55
12913;BME280;6524;51.368;11.984;2022-07-17T19:43:49;101223.81;;;23.26;37.82
12913;BME280;6524;51.368;11.984;2022-07-17T19:48:50;101228.09;;;23.16;38.46
12913;BME280;6524;51.368;11.984;2022-07-17T19:53:50;101236.38;;;23.12;38.49
12913;BME280;6524;51.368;11.984;2022-07-17T19:58:53;101235.66;;;22.97;38.56
12913;BME280;6524;51.368;11.984;2022-07-17T20:03:53;101235.56;;;22.85;38.29
12913;BME280;6524;51.368;11.984;2022-07-17T20:08:54;101245.03;;;22.77;38.44
12913;BME280;6524;51.368;11.984;2022-07-17T20:13:54;101249.94;;;22.57;39.09
12913;BME280;6524;51.368;11.984;2022-07-17T20:18:55;101255.44;;;22.42;39.90
12913;BME280;6524;51.368;11.984;2022-07-17T20:23:55;101255.66;;;22.38;40.24
12913;BME280;6524;51.368;11.984;2022-07-17T20:28:57;101249.47;;;22.25;40.56
12913;BME280;6524;51.368;11.984;2022-07-17T20:33:57;101254.25;;;22.20;41.10
12913;BME280;6524;51.368;11.984;2022-07-17T20:38:58;101255.44;;;22.02;42.05
12913;BME280;6524;51.368;11.984;2022-07-17T20:43:58;101260.66;;;21.76;41.65
12913;BME280;6524;51.368;11.984;2022-07-17T20:48:59;101254.28;;;21.52;42.95
12913;BME280;6524;51.368;11.984;2022-07-17T20:53:59;101253.94;;;21.29;43.74
12913;BME280;6524;51.368;11.984;2022-07-17T20:58:59;101259.63;;;21.23;43.76
12913;BME280;6524;51.368;11.984;2022-07-17T21:04:00;101264.00;;;21.10;43.57
12913;BME280;6524;51.368;11.984;2022-07-17T21:09:00;101268.56;;;20.93;44.44
12913;BME280;6524;51.368;11.984;2022-07-17T21:14:01;101260.59;;;20.79;44.96
12913;BME280;6524;51.368;11.984;2022-07-17T21:19:01;101274.59;;;20.67;45.56
12913;BME280;6524;51.368;11.984;2022-07-17T21:24:02;101274.28;;;20.57;46.23
12913;BME280;6524;51.368;11.984;2022-07-17T21:29:03;101276.00;;;20.58;45.50
12913;BME280;6524;51.368;11.984;2022-07-17T21:34:03;101280.63;;;20.54;45.69
12913;BME280;6524;51.368;11.984;2022-07-17T21:39:03;101282.72;;;20.33;46.34
12913;BME280;6524;51.368;11.984;2022-07-17T21:44:04;101291.84;;;20.14;47.17
12913;BME280;6524;51.368;11.984;2022-07-17T21:49:05;101291.00;;;19.97;47.70
12913;BME280;6524;51.368;11.984;2022-07-17T21:54:05;101289.66;;;19.90;48.16
12913;BME280;6524;51.368;11.984;2022-07-17T21:59:08;101296.41;;;19.80;48.73
12913;BME280;6524;51.368;11.984;2022-07-17T22:04:08;101297.31;;;19.63;49.37
12913;BME280;6524;51.368;11.984;2022-07-17T22:09:09;101297.50;;;19.60;49.40
12913;BME280;6524;51.368;11.984;2022-07-17T22:14:09;101293.41;;;19.54;50.18
12913;BME280;6524;51.368;11.984;2022-07-17T22:19:10;101299.13;;;19.47;50.00
12913;BME280;6524;51.368;11.984;2022-07-17T22:24:11;101285.09;;;19.29;50.47
12913;BME280;6524;51.368;11.984;2022-07-17T22:29:12;101275.81;;;19.22;50.93
12913;BME280;6524;51.368;11.984;2022-07-17T22:34:12;101281.06;;;19.06;51.46
12913;BME280;6524;51.368;11.984;2022-07-17T22:39:13;101274.81;;;18.91;52.00
12913;BME280;6524;51.368;11.984;2022-07-17T22:44:14;101263.44;;;18.89;52.28
12913;BME280;6524;51.368;11.984;2022-07-17T22:49:15;101256.78;;;18.82;52.82
12913;BME280;6524;51.368;11.984;2022-07-17T22:54:16;101260.53;;;18.78;52.96
12913;BME280;6524;51.368;11.984;2022-07-17T22:59:16;101252.00;;;18.72;53.25
12913;BME280;6524;51.368;11.984;2022-07-17T23:04:16;101253.97;;;18.67;53.69
12913;BME280;6524;51.368;11.984;2022-07-17T23:09:17;101256.34;;;18.56;54.21
12913;BME280;6524;51.368;11.984;2022-07-17T23:14:18;101244.72;;;18.43;54.42
12913;BME280;6524;51.368;11.984;2022-07-17T23:19:18;101240.56;;;18.20;54.90
12913;BME280;6524;51.368;11.984;2022-07-17T23:24:18;101255.72;;;17.99;56.18
12913;BME280;6524;51.368;11.984;2022-07-17T23:29:19;101255.09;;;18.11;55.43
12913;BME280;6524;51.368;11.984;2022-07-17T23:34:19;101244.88;;;18.05;55.48
12913;BME280;6524;51.368;11.984;2022-07-17T23:39:19;101253.44;;;17.91;56.21
12913;BME280;6524;51.368;11.984;2022-07-17T23:44:19;101253.91;;;17.82;55.77
12913;BME280;6524;51.368;11.984;2022-07-17T23:49:20;101257.53;;;17.79;56.15
12913;BME280;6524;51.368;11.984;2022-07-17T23:54:20;101251.75;;;17.71;55.68
12913;BME280;6524;51.368;11.984;2022-07-17T23:59:21;101236.38;;;17.62;56.97
